Time;durP1;ratioP1;P1;durP2;ratioP2;P2;SDS_P1;SDS_P2;PMS_P1;PMS_P2;Temp;Humidity;BMP_temperature;BMP_pressure;BME280_temperature;BME280_humidity;BME280_pressure;Samples;Min_cycle;Max_cycle;Signal;HPM_P1;HPM_P2
2022/01/04 00:01:11;;;;;;;17.63;8.13;;;7.20;99.90;;;;;;10232641;29;20058;-85
2022/01/04 00:06:12;;;;;;;20.43;7.97;;;7.20;99.90;;;;;;10275451;28;20043;-84
2022/01/04 00:11:19;;;;;;;16.97;7.63;;;7.20;99.90;;;;;;10271674;28;20039;-84
2022/01/04 00:16:19;;;;;;;16.30;6.60;;;7.20;99.90;;;;;;10267728;28;20368;-85
2022/01/04 00:21:20;;;;;;;23.57;7.93;;;7.10;99.90;;;;;;10271626;28;20062;-85
2022/01/04 00:26:21;;;;;;;19.93;8.40;;;7.10;99.90;;;;;;10283006;28;20047;-86
2022/01/04 00:31:22;;;;;;;20.70;8.73;;;7.00;99.90;;;;;;10280316;28;20038;-86
2022/01/04 00:36:22;;;;;;;19.47;6.97;;;7.00;99.90;;;;;;10278351;28;20023;-86
2022/01/04 00:41:23;;;;;;;19.30;7.67;;;6.90;99.90;;;;;;10277035;28;20051;-85
2022/01/04 00:46:24;;;;;;;16.83;9.70;;;6.90;99.90;;;;;;10258476;28;20571;-85
2022/01/04 00:51:24;;;;;;;19.77;9.50;;;6.90;99.90;;;;;;10248028;29;20039;-85
2022/01/04 00:56:25;;;;;;;22.20;10.37;;;6.80;99.90;;;;;;10262718;28;20030;-86
2022/01/04 01:01:26;;;;;;;19.43;8.57;;;6.80;99.90;;;;;;10283626;28;20134;-86
2022/01/04 01:06:27;;;;;;;16.83;8.37;;;6.80;99.90;;;;;;10248205;28;20467;-85
2022/01/04 01:11:28;;;;;;;21.17;9.00;;;6.70;99.90;;;;;;10246976;28;20031;-86
2022/01/04 01:16:28;;;;;;;22.93;10.17;;;6.70;99.90;;;;;;10273591;28;20039;-85
2022/01/04 01:21:29;;;;;;;22.27;12.43;;;6.70;99.90;;;;;;10277937;28;20051;-87
2022/01/04 01:26:29;;;;;;;19.17;7.93;;;6.60;99.90;;;;;;10241644;28;20545;-88
2022/01/04 01:31:30;;;;;;;15.43;6.20;;;6.60;99.90;;;;;;10280784;28;20031;-88
2022/01/04 01:36:31;;;;;;;18.23;8.90;;;6.60;99.90;;;;;;10275875;28;20031;-87
2022/01/04 01:41:32;;;;;;;19.00;8.77;;;6.60;99.90;;;;;;10263018;28;20043;-87
2022/01/04 01:46:32;;;;;;;24.70;11.67;;;6.50;99.90;;;;;;10243257;28;20035;-86
2022/01/04 01:51:33;;;;;;;25.00;12.23;;;6.50;99.90;;;;;;10242747;28;20035;-88
2022/01/04 01:56:34;;;;;;;29.17;13.83;;;6.50;99.90;;;;;;10270140;28;20491;-86
2022/01/04 02:01:35;;;;;;;32.70;18.90;;;6.50;99.90;;;;;;10267605;28;20054;-87
2022/01/04 02:06:36;;;;;;;32.50;14.37;;;6.50;99.90;;;;;;10276410;28;20024;-85
2022/01/04 02:11:37;;;;;;;26.57;14.50;;;6.40;99.90;;;;;;10246362;28;20043;-86
2022/01/04 02:16:38;;;;;;;22.97;12.97;;;6.40;99.90;;;;;;10254149;28;20111;-87
2022/01/04 02:21:39;;;;;;;23.43;13.33;;;6.40;99.90;;;;;;10256413;28;20061;-85
2022/01/04 02:26:40;;;;;;;23.33;11.90;;;6.40;99.90;;;;;;10269853;28;20031;-85
2022/01/04 02:31:41;;;;;;;23.70;12.93;;;6.30;99.90;;;;;;10276648;28;20034;-86
2022/01/04 02:36:42;;;;;;;21.77;13.37;;;6.30;99.90;;;;;;10269911;28;20498;-86
2022/01/04 02:41:42;;;;;;;20.60;12.77;;;6.30;99.90;;;;;;10258583;28;20054;-85
2022/01/04 02:46:43;;;;;;;23.43;12.27;;;6.30;99.90;;;;;;10261266;28;20046;-86
2022/01/04 02:51:44;;;;;;;17.50;10.50;;;6.20;99.90;;;;;;10275244;28;20035;-85
2022/01/04 02:56:45;;;;;;;22.77;11.77;;;6.20;99.90;;;;;;10261593;28;20018;-84
2022/01/04 03:01:45;;;;;;;20.37;8.80;;;6.10;99.90;;;;;;10249454;28;20035;-85
2022/01/04 03:06:46;;;;;;;18.43;9.67;;;6.10;99.90;;;;;;10234859;28;20116;-86
2022/01/04 03:11:47;;;;;;;21.63;12.23;;;6.00;99.90;;;;;;10234761;29;20035;-86
2022/01/04 03:16:48;;;;;;;25.63;14.90;;;6.00;99.90;;;;;;10255658;28;20046;-85
2022/01/04 03:21:48;;;;;;;22.83;12.93;;;6.00;99.90;;;;;;10251353;29;20138;-85
2022/01/04 03:26:49;;;;;;;24.77;14.57;;;5.90;99.90;;;;;;10253525;28;20122;-86
2022/01/04 03:31:51;;;;;;;24.97;15.10;;;6.00;99.90;;;;;;10256796;28;20037;-85
2022/01/04 03:36:52;;;;;;;28.80;17.30;;;5.90;99.90;;;;;;10269901;28;20050;-85
2022/01/04 03:41:52;;;;;;;29.63;17.47;;;6.00;99.90;;;;;;10261800;28;20398;-84
2022/01/04 03:46:56;;;;;;;34.60;19.93;;;6.00;99.90;;;;;;10285373;28;20039;-84
2022/01/04 03:51:57;;;;;;;30.47;17.90;;;6.00;99.90;;;;;;10265870;28;20087;-85
2022/01/04 03:56:58;;;;;;;34.60;19.97;;;6.00;99.90;;;;;;10260457;28;20035;-84
2022/01/04 04:01:59;;;;;;;48.30;25.60;;;6.00;99.90;;;;;;10256804;28;20046;-88
2022/01/04 04:06:59;;;;;;;48.40;24.80;;;6.10;99.90;;;;;;10252984;28;20039;-88
2022/01/04 04:12:02;;;;;;;40.80;21.67;;;6.10;99.90;;;;;;10254206;28;20380;-87
2022/01/04 04:17:03;;;;;;;41.67;20.87;;;6.10;99.90;;;;;;10245341;29;20027;-86
2022/01/04 04:22:04;;;;;;;41.07;21.37;;;6.20;99.90;;;;;;10273284;28;20059;-85
2022/01/04 04:27:05;;;;;;;27.83;14.57;;;6.10;99.90;;;;;;10266814;28;20034;-84
2022/01/04 04:32:06;;;;;;;31.97;17.60;;;6.20;99.90;;;;;;10272792;28;20069;-86
2022/01/04 04:37:07;;;;;;;36.20;19.37;;;6.20;99.90;;;;;;10248072;28;20027;-84
2022/01/04 04:42:08;;;;;;;38.53;18.30;;;6.20;99.90;;;;;;10277756;28;20049;-87
2022/01/04 04:47:09;;;;;;;47.63;20.77;;;6.20;99.90;;;;;;10232661;29;20557;-85
2022/01/04 04:52:10;;;;;;;44.90;22.30;;;6.20;99.90;;;;;;10260178;28;20037;-86
2022/01/04 04:57:11;;;;;;;55.10;23.80;;;6.30;99.90;;;;;;10234482;28;20031;-85
2022/01/04 05:02:11;;;;;;;50.20;26.07;;;6.30;99.90;;;;;;10247171;29;20046;-85
2022/01/04 05:07:12;;;;;;;50.07;23.90;;;6.30;99.90;;;;;;10244553;28;20037;-87
2022/01/04 05:12:13;;;;;;;47.20;22.53;;;6.40;99.90;;;;;;10283980;28;20556;-86
2022/01/04 05:17:13;;;;;;;46.77;25.10;;;6.40;99.90;;;;;;10241583;28;20023;-86
2022/01/04 05:22:14;;;;;;;41.83;23.77;;;6.50;99.90;;;;;;10287292;28;20062;-86
2022/01/04 05:27:15;;;;;;;36.27;20.30;;;6.50;99.90;;;;;;10287344;28;20031;-85
2022/01/04 05:32:16;;;;;;;47.53;20.80;;;6.40;99.90;;;;;;10250595;28;20093;-87
2022/01/04 05:37:17;;;;;;;41.80;21.53;;;6.50;99.90;;;;;;10264194;28;20043;-87
2022/01/04 05:42:17;;;;;;;43.10;23.20;;;6.50;99.90;;;;;;10252352;28;20148;-86
2022/01/04 05:47:18;;;;;;;44.07;24.17;;;6.40;99.90;;;;;;10287903;28;20030;-85
2022/01/04 05:52:19;;;;;;;44.73;24.90;;;6.50;99.90;;;;;;10264135;28;20031;-84
2022/01/04 05:57:19;;;;;;;46.93;23.97;;;6.40;99.90;;;;;;10273669;28;20034;-83
2022/01/04 06:02:20;;;;;;;44.20;21.90;;;6.50;99.90;;;;;;10286712;28;20047;-84
2022/01/04 06:07:21;;;;;;;39.33;22.00;;;6.40;99.90;;;;;;10263934;28;20042;-85
2022/01/04 06:17:47;;;;;;;46.47;26.60;;;6.40;99.90;;;;;;10287664;28;20045;-85
2022/01/04 06:22:52;;;;;;;48.33;24.77;;;6.50;99.90;;;;;;10292136;28;20065;-84
2022/01/04 06:27:53;;;;;;;51.03;26.47;;;6.50;99.90;;;;;;10286098;28;20042;-83
2022/01/04 06:32:54;;;;;;;54.47;26.00;;;6.50;99.90;;;;;;10294212;28;20030;-84
2022/01/04 06:37:55;;;;;;;211.03;125.93;;;6.50;99.90;;;;;;10293952;28;20091;-84
2022/01/04 06:42:56;;;;;;;120.10;83.73;;;6.50;99.90;;;;;;10288454;28;20047;-86
2022/01/04 06:47:57;;;;;;;36.87;24.37;;;6.50;99.90;;;;;;10254857;28;20110;-86
2022/01/04 06:52:58;;;;;;;53.67;29.90;;;6.60;99.90;;;;;;10264476;28;20118;-84
2022/01/04 06:57:58;;;;;;;49.90;28.00;;;6.60;99.90;;;;;;10252689;28;20042;-84
2022/01/04 07:02:59;;;;;;;24.40;12.60;;;6.70;99.90;;;;;;10255860;28;20065;-85
2022/01/04 07:08:00;;;;;;;160.97;86.00;;;6.70;99.90;;;;;;10221877;28;20456;-86
2022/01/04 07:13:00;;;;;;;147.37;67.17;;;6.70;99.90;;;;;;10245784;28;20111;-86
2022/01/04 07:18:04;;;;;;;214.67;122.70;;;6.80;99.90;;;;;;10262952;28;20039;-84
2022/01/04 07:23:05;;;;;;;73.93;44.53;;;6.80;99.90;;;;;;10272783;28;20039;-87
2022/01/04 07:28:05;;;;;;;63.00;30.17;;;6.90;99.90;;;;;;10261815;28;20442;-85
2022/01/04 07:33:06;;;;;;;41.70;18.70;;;6.90;99.90;;;;;;10250684;29;20130;-86
2022/01/04 07:38:07;;;;;;;110.63;43.37;;;6.90;99.90;;;;;;10252284;28;20031;-86
2022/01/04 07:43:08;;;;;;;98.67;36.00;;;7.00;99.90;;;;;;10256670;28;20123;-83
2022/01/04 07:48:10;;;;;;;98.57;37.17;;;7.00;99.90;;;;;;10261086;28;20039;-85
2022/01/04 07:53:11;;;;;;;108.13;37.53;;;7.10;99.90;;;;;;10251653;28;20031;-85
2022/01/04 07:58:12;;;;;;;77.80;29.10;;;7.10;99.90;;;;;;10229097;28;20495;-85
2022/01/04 08:03:13;;;;;;;52.70;20.13;;;7.10;99.90;;;;;;10258497;28;20053;-87
2022/01/04 08:08:14;;;;;;;33.80;15.27;;;7.20;99.90;;;;;;10242642;28;20034;-83
2022/01/04 08:13:15;;;;;;;40.23;16.77;;;7.20;99.90;;;;;;10243308;28;20089;-84
2022/01/04 08:18:16;;;;;;;35.07;15.10;;;7.20;99.90;;;;;;10251483;28;20633;-84
2022/01/04 08:23:17;;;;;;;21.00;10.17;;;7.30;99.90;;;;;;10255585;28;20055;-83
2022/01/04 08:28:18;;;;;;;29.27;11.97;;;7.30;99.90;;;;;;10252014;28;20037;-84
2022/01/04 08:33:19;;;;;;;19.00;10.03;;;7.30;99.90;;;;;;10242225;28;20031;-84
2022/01/04 08:38:19;;;;;;;22.80;11.27;;;7.40;99.90;;;;;;10247764;29;20475;-83
2022/01/04 08:43:20;;;;;;;74.97;33.93;;;7.40;99.90;;;;;;10236260;28;20035;-83
2022/01/04 08:48:21;;;;;;;178.90;131.73;;;7.40;99.90;;;;;;10237827;28;20031;-84
2022/01/04 08:53:21;;;;;;;237.83;175.50;;;7.40;99.90;;;;;;10246755;29;20431;-83
2022/01/04 08:58:22;;;;;;;73.63;42.03;;;7.40;99.90;;;;;;10251483;28;20102;-82
2022/01/04 09:03:24;;;;;;;125.63;96.50;;;7.40;99.90;;;;;;10259444;28;20038;-83
2022/01/04 09:08:25;;;;;;;128.30;54.07;;;7.40;99.90;;;;;;10288187;28;20035;-87
2022/01/04 09:13:32;;;;;;;227.90;161.67;;;7.40;99.90;;;;;;10264109;28;20039;-87
2022/01/04 09:18:45;;;;;;;89.23;39.20;;;7.40;99.90;;;;;;10284880;28;20597;-86
2022/01/04 09:23:48;;;;;;;137.63;53.83;;;7.50;99.90;;;;;;10252525;28;20042;-90
2022/01/04 09:28:49;;;;;;;73.00;39.83;;;7.60;99.90;;;;;;10253700;28;20116;-85
2022/01/04 09:33:53;;;;;;;122.07;49.83;;;7.60;99.90;;;;;;10249681;28;20110;-86
2022/01/04 09:38:54;;;;;;;149.73;61.83;;;7.60;99.90;;;;;;10270946;28;20422;-90
2022/01/04 09:43:55;;;;;;;144.30;68.63;;;7.60;99.90;;;;;;10248144;28;20039;-85
2022/01/04 09:48:57;;;;;;;225.10;94.80;;;7.60;99.90;;;;;;10263437;28;20045;-86
2022/01/04 09:53:57;;;;;;;131.43;58.20;;;7.60;99.90;;;;;;10268910;28;20114;-84
2022/01/04 09:58:58;;;;;;;115.17;68.00;;;7.70;99.90;;;;;;10241883;28;20045;-86
2022/01/04 10:04:00;;;;;;;139.53;63.13;;;7.70;99.90;;;;;;10279055;28;20118;-84
2022/01/04 10:09:08;;;;;;;65.53;31.23;;;7.70;99.90;;;;;;10280152;28;20038;-87
2022/01/04 10:14:33;;;;;;;65.37;39.70;;;7.70;99.90;;;;;;10259494;28;20114;-86
2022/01/04 10:19:40;;;;;;;55.80;31.87;;;7.70;99.90;;;;;;10268390;28;20055;-85
2022/01/04 10:24:42;;;;;;;35.57;18.67;;;7.70;99.90;;;;;;10271841;28;20023;-85
2022/01/04 10:29:43;;;;;;;54.33;30.57;;;7.70;99.90;;;;;;10256627;28;20035;-85
2022/01/04 10:34:48;;;;;;;38.70;22.03;;;7.70;99.90;;;;;;10267731;28;20109;-85
2022/01/04 10:40:04;;;;;;;35.37;22.27;;;7.70;99.90;;;;;;10286175;28;20042;-83
2022/01/04 10:45:24;;;;;;;;;;;7.70;99.90;;;;;;10259429;28;20426;-85
2022/01/04 10:50:32;;;;;;;40.93;23.10;;;7.70;99.90;;;;;;10238922;28;20346;-85
2022/01/04 10:55:36;;;;;;;35.23;20.07;;;7.70;99.90;;;;;;10258461;28;20463;-86
2022/01/04 11:00:37;;;;;;;33.10;19.13;;;7.70;99.90;;;;;;10240812;28;20047;-87
2022/01/04 11:05:39;;;;;;;33.63;19.50;;;7.70;99.90;;;;;;10243057;28;20027;-88
2022/01/04 11:10:41;;;;;;;35.43;20.63;;;7.80;99.90;;;;;;10224782;28;20027;-88
2022/01/04 11:15:42;;;;;;;39.10;22.77;;;7.80;99.90;;;;;;10268891;28;20035;-90
2022/01/04 11:20:46;;;;;;;37.13;22.07;;;7.90;99.90;;;;;;10271765;28;20562;-87
2022/01/04 11:25:48;;;;;;;52.20;27.97;;;7.90;99.90;;;;;;10290996;28;20038;-87
2022/01/04 11:31:12;;;;;;;63.13;31.93;;;7.90;99.90;;;;;;10265812;28;20122;-85
2022/01/04 11:36:15;;;;;;;76.70;36.07;;;8.00;99.90;;;;;;10236869;28;20045;-86
2022/01/04 11:41:32;;;;;;;75.27;35.00;;;8.10;99.90;;;;;;10269547;28;20049;-86
2022/01/04 11:46:36;;;;;;;84.13;35.07;;;8.10;99.90;;;;;;10265101;28;20031;-86
2022/01/04 11:51:39;;;;;;;93.60;47.53;;;8.10;99.90;;;;;;10264326;28;20498;-87
2022/01/04 11:57:18;;;;;;;132.27;50.63;;;8.10;99.90;;;;;;10261004;28;20023;-87
2022/01/04 12:02:35;;;;;;;229.17;87.57;;;8.20;99.90;;;;;;10247187;28;20047;-87
2022/01/04 12:07:38;;;;;;;335.70;122.97;;;8.20;99.90;;;;;;10287851;28;20022;-86
2022/01/04 12:13:03;;;;;;;154.47;58.67;;;8.30;99.90;;;;;;10279713;28;20434;-86
2022/01/04 12:18:06;;;;;;;302.50;109.53;;;8.30;99.90;;;;;;10221874;29;20078;-88
2022/01/04 12:23:25;;;;;;;83.97;40.43;;;8.40;99.90;;;;;;10239462;28;20036;-88
2022/01/04 12:28:26;;;;;;;26.03;14.30;;;8.40;99.90;;;;;;10257999;28;20043;-88
2022/01/04 12:33:35;;;;;;;37.13;16.70;;;8.50;99.90;;;;;;10243466;28;20032;-86
2022/01/04 12:38:36;;;;;;;18.83;11.00;;;8.50;99.90;;;;;;10262372;28;20047;-86
2022/01/04 12:43:37;;;;;;;363.53;112.73;;;8.60;99.90;;;;;;10280577;28;20516;-87
2022/01/04 12:48:49;;;;;;;64.97;25.73;;;8.60;99.90;;;;;;10268544;28;20027;-87
2022/01/04 12:53:50;;;;;;;36.50;16.87;;;8.70;99.90;;;;;;10260344;28;20035;-87
2022/01/04 12:58:50;;;;;;;41.43;18.70;;;8.70;99.90;;;;;;10249486;28;20132;-86
2022/01/04 13:03:51;;;;;;;38.13;17.73;;;8.60;99.90;;;;;;10239514;28;20657;-87
2022/01/04 13:08:56;;;;;;;33.73;16.10;;;8.60;99.90;;;;;;10266645;28;20475;-85
2022/01/04 13:14:06;;;;;;;40.08;17.42;;;8.60;99.90;;;;;;10237122;28;20481;-85
2022/01/04 13:19:22;;;;;;;28.30;12.03;;;8.60;99.90;;;;;;10280129;28;20059;-86
2022/01/04 13:24:37;;;;;;;31.00;13.83;;;8.60;99.90;;;;;;10264167;28;20035;-87
2022/01/04 13:29:37;;;;;;;28.57;14.40;;;8.60;99.90;;;;;;10272141;28;20035;-86
2022/01/04 13:34:38;;;;;;;22.63;12.57;;;8.60;99.90;;;;;;10250006;28;20031;-87
2022/01/04 13:39:39;;;;;;;37.03;17.17;;;8.50;99.90;;;;;;10269212;28;20384;-86
2022/01/04 13:44:58;;;;;;;31.00;13.33;;;8.50;99.90;;;;;;10246699;29;20047;-86
2022/01/04 13:50:19;;;;;;;81.37;31.37;;;8.50;99.90;;;;;;10248149;29;20090;-88
2022/01/04 13:55:20;;;;;;;49.37;18.33;;;8.50;99.90;;;;;;10229785;29;20050;-89
2022/01/04 14:00:39;;;;;;;21.43;9.17;;;8.40;99.90;;;;;;10246427;29;20472;-88
2022/01/04 14:05:39;;;;;;;76.20;29.97;;;8.50;99.90;;;;;;10249664;28;20031;-89
2022/01/04 14:10:44;;;;;;;42.60;16.67;;;8.40;99.90;;;;;;10245811;28;20043;-86
2022/01/04 14:16:11;;;;;;;90.40;34.63;;;8.40;99.90;;;;;;10265847;28;20031;-88
2022/01/04 14:21:12;;;;;;;54.30;21.70;;;8.40;99.90;;;;;;10283571;28;20065;-87
2022/01/04 14:26:12;;;;;;;46.13;18.50;;;8.40;99.90;;;;;;10263227;28;20390;-88
2022/01/04 14:31:18;;;;;;;45.17;17.47;;;8.40;99.90;;;;;;10269180;28;20050;-89
2022/01/04 14:36:19;;;;;;;49.83;20.33;;;8.40;99.90;;;;;;10254300;29;20031;-87
2022/01/04 14:41:19;;;;;;;53.23;24.07;;;8.30;99.90;;;;;;10257094;28;20065;-86
2022/01/04 14:46:22;;;;;;;68.37;24.33;;;8.40;99.90;;;;;;10293965;28;20041;-87
2022/01/04 14:51:22;;;;;;;62.27;24.80;;;8.30;99.90;;;;;;10257392;28;20027;-87
2022/01/04 14:56:23;;;;;;;36.67;16.10;;;8.30;99.90;;;;;;10267950;28;20447;-88
2022/01/04 15:01:24;;;;;;;39.93;17.17;;;8.30;99.90;;;;;;10255600;28;20138;-90
2022/01/04 15:06:25;;;;;;;31.40;15.77;;;8.30;99.90;;;;;;10261673;28;20038;-87
2022/01/04 15:11:27;;;;;;;40.30;19.83;;;8.30;99.90;;;;;;10222757;28;20032;-87
2022/01/04 15:16:32;;;;;;;39.93;17.57;;;8.30;99.90;;;;;;10237127;28;20078;-87
2022/01/04 15:21:33;;;;;;;41.00;18.93;;;8.30;99.90;;;;;;10282696;28;20131;-88
2022/01/04 15:26:35;;;;;;;28.93;15.30;;;8.30;99.90;;;;;;10249783;28;20032;-87
2022/01/04 15:31:36;;;;;;;40.90;23.63;;;8.20;99.90;;;;;;10264705;28;20656;-86
2022/01/04 15:36:36;;;;;;;36.37;20.97;;;8.30;99.90;;;;;;10291859;28;20031;-86
2022/01/04 15:41:37;;;;;;;32.53;18.37;;;8.20;99.90;;;;;;10259207;28;20515;-88
2022/01/04 15:46:38;;;;;;;35.70;19.73;;;8.20;99.90;;;;;;10269507;28;20034;-87
2022/01/04 15:51:39;;;;;;;45.47;25.93;;;8.20;99.90;;;;;;10269555;28;20027;-87
2022/01/04 15:56:42;;;;;;;42.23;24.90;;;8.20;99.90;;;;;;10232826;29;20027;-88
2022/01/04 16:01:43;;;;;;;43.07;21.87;;;8.20;99.90;;;;;;10263663;28;20039;-88
2022/01/04 16:06:44;;;;;;;36.47;19.73;;;8.20;99.90;;;;;;10249004;28;20022;-88
2022/01/04 16:11:44;;;;;;;30.90;18.03;;;8.20;99.90;;;;;;10246779;28;20483;-86
2022/01/04 16:17:02;;;;;;;30.23;16.73;;;8.20;99.90;;;;;;10243940;28;20034;-90
2022/01/04 16:22:03;;;;;;;31.70;17.37;;;8.10;99.90;;;;;;10252255;28;20099;-88
2022/01/04 16:27:03;;;;;;;26.30;13.83;;;8.20;99.90;;;;;;10244196;28;20068;-86
2022/01/04 16:32:05;;;;;;;25.10;13.07;;;8.20;99.90;;;;;;10240820;28;20395;-88
2022/01/04 16:37:06;;;;;;;16.47;8.70;;;8.30;99.90;;;;;;10221014;28;20491;-88
2022/01/04 16:42:07;;;;;;;51.13;21.50;;;8.30;99.90;;;;;;10241360;28;20046;-85
2022/01/04 16:47:08;;;;;;;52.87;19.80;;;8.40;99.90;;;;;;10239235;28;20031;-86
2022/01/04 16:52:09;;;;;;;51.90;20.30;;;8.50;99.90;;;;;;10242542;28;20538;-87
2022/01/04 16:57:10;;;;;;;71.63;26.37;;;8.50;99.90;;;;;;10240649;28;20030;-88
2022/01/04 17:02:10;;;;;;;40.10;15.53;;;8.60;99.90;;;;;;10213728;28;20042;-87
2022/01/04 17:07:12;;;;;;;39.17;16.07;;;8.60;99.90;;;;;;10213299;28;20041;-84
2022/01/04 17:17:26;;;;;;;75.73;31.47;;;8.70;99.90;;;;;;10229205;28;20033;-84
2022/01/04 17:23:01;;;;;;;108.97;43.20;;;8.70;99.90;;;;;;10220976;28;20066;-86
2022/01/04 17:28:03;;;;;;;63.20;29.27;;;8.80;99.90;;;;;;10229524;28;20038;-87
2022/01/04 17:33:04;;;;;;;55.50;26.23;;;8.80;99.90;;;;;;10229687;28;20031;-86
2022/01/04 17:38:36;;;;;;;88.70;33.83;;;8.80;99.90;;;;;;10228428;28;20023;-86
2022/01/04 17:43:36;;;;;;;60.63;23.53;;;8.80;99.90;;;;;;10229779;28;20057;-86
2022/01/04 17:54:28;;;;;;;53.90;23.93;;;8.90;99.90;;;;;;10634568;23;20055;-86
2022/01/04 17:59:53;;;;;;;39.10;17.43;;;8.80;99.90;;;;;;10303204;28;20041;-88
2022/01/04 18:04:54;;;;;;;72.07;26.20;;;8.90;99.90;;;;;;10303210;28;20976;-88
2022/01/04 18:09:54;;;;;;;47.53;20.27;;;8.90;99.90;;;;;;10302361;28;20068;-87
2022/01/04 18:14:56;;;;;;;84.57;32.17;;;8.90;99.90;;;;;;10319799;28;20018;-88
2022/01/04 18:19:57;;;;;;;25.20;13.27;;;8.90;99.90;;;;;;10323199;28;20041;-89
2022/01/04 18:30:55;;;;;;;81.03;29.23;;;9.00;99.90;;;;;;10324012;23;20058;-88
2022/01/04 18:36:06;;;;;;;41.63;17.80;;;9.00;99.90;;;;;;10311302;28;20030;-87
2022/01/04 18:41:34;;;;;;;63.93;24.80;;;9.00;99.90;;;;;;10323846;28;20046;-95
2022/01/04 18:46:41;;;;;;;31.80;14.90;;;9.10;99.90;;;;;;10299581;28;20615;-94
2022/01/04 18:57:09;;;;;;;49.50;19.97;;;9.20;99.90;;;;;;10200060;29;20043;-89
2022/01/04 19:02:48;;;;;;;53.03;19.97;;;9.30;99.90;;;;;;10197428;29;20051;-89
2022/01/04 19:08:15;;;;;;;50.43;19.37;;;9.40;99.90;;;;;;10272636;28;20070;-92
2022/01/04 19:13:15;;;;;;;75.10;28.67;;;9.50;99.90;;;;;;10245022;28;20074;-90
2022/01/04 19:24:29;;;;;;;73.87;26.60;;;9.70;99.90;;;;;;10315874;28;20046;-91
2022/01/04 19:29:30;;;;;;;28.03;14.23;;;9.70;99.90;;;;;;10255621;28;20515;-88
2022/01/04 19:39:55;;;;;;;42.40;17.73;;;9.80;99.90;;;;;;10276643;28;20043;-88
2022/01/04 19:45:03;;;;;;;35.00;16.30;;;9.90;99.90;;;;;;10246776;28;20039;-87
2022/01/04 19:50:05;;;;;;;35.93;15.33;;;9.90;99.90;;;;;;10273958;28;20034;-87
2022/01/04 19:55:16;;;;;;;36.13;16.97;;;9.90;99.90;;;;;;10265064;28;20794;-88
2022/01/04 20:00:17;;;;;;;39.53;17.53;;;9.90;99.90;;;;;;10261924;28;20031;-87
2022/01/04 20:05:18;;;;;;;26.37;13.37;;;10.00;99.90;;;;;;10244982;28;20030;-88
2022/01/04 20:10:31;;;;;;;19.67;11.53;;;10.00;99.90;;;;;;10248519;28;20023;-87
2022/01/04 20:15:33;;;;;;;27.97;14.80;;;10.00;99.90;;;;;;10267177;28;20027;-85
2022/01/04 20:20:34;;;;;;;30.33;16.70;;;10.00;99.90;;;;;;10270458;28;20038;-88
2022/01/04 20:25:35;;;;;;;22.97;12.87;;;10.00;99.90;;;;;;10276692;28;20027;-86
2022/01/04 20:30:36;;;;;;;24.40;12.77;;;10.10;99.90;;;;;;10268015;28;20059;-88
2022/01/04 20:35:36;;;;;;;21.90;10.77;;;10.20;99.90;;;;;;10278745;28;20031;-86
2022/01/04 20:40:37;;;;;;;24.67;12.23;;;10.20;99.90;;;;;;10261680;28;20494;-86
2022/01/04 20:45:38;;;;;;;16.80;8.73;;;10.20;99.90;;;;;;10260926;28;20034;-85
2022/01/04 20:50:40;;;;;;;38.63;15.90;;;10.10;99.90;;;;;;10256495;28;20054;-86
2022/01/04 20:55:41;;;;;;;28.87;13.77;;;10.00;99.90;;;;;;10263059;28;20030;-87
2022/01/04 21:00:41;;;;;;;46.13;19.50;;;9.90;99.90;;;;;;10261686;28;20079;-90
2022/01/04 21:05:42;;;;;;;43.67;21.40;;;9.70;99.90;;;;;;10262020;28;20031;-88
2022/01/04 21:10:44;;;;;;;17.67;9.47;;;9.60;99.90;;;;;;10257246;28;20479;-88
2022/01/04 21:15:45;;;;;;;14.77;8.77;;;9.30;99.90;;;;;;10253264;28;20033;-87
2022/01/04 21:20:45;;;;;;;16.17;8.60;;;9.00;99.90;;;;;;10264033;28;20031;-85
2022/01/04 21:25:46;;;;;;;17.77;10.07;;;8.60;99.90;;;;;;10266223;28;20039;-87
2022/01/04 21:30:47;;;;;;;31.87;17.33;;;8.40;99.90;;;;;;10258998;28;20072;-86
2022/01/04 21:35:48;;;;;;;29.20;13.70;;;8.30;99.90;;;;;;10275199;28;20117;-86
2022/01/04 21:40:48;;;;;;;24.67;12.93;;;8.10;99.90;;;;;;10255031;28;20406;-87
2022/01/04 21:45:49;;;;;;;16.23;10.27;;;8.00;99.90;;;;;;10274464;28;20055;-86
2022/01/04 21:50:50;;;;;;;13.20;7.73;;;7.90;99.90;;;;;;10232034;28;20058;-87
2022/01/04 21:55:51;;;;;;;14.23;7.77;;;7.80;99.90;;;;;;10259236;28;20054;-85
2022/01/04 22:00:51;;;;;;;16.90;9.87;;;7.70;99.90;;;;;;10257444;28;20042;-86
2022/01/04 22:05:52;;;;;;;16.53;8.97;;;7.70;99.90;;;;;;10284451;28;20026;-85
2022/01/04 22:10:53;;;;;;;12.03;7.37;;;7.60;99.90;;;;;;10256138;28;20032;-85
2022/01/04 22:15:54;;;;;;;7.63;3.80;;;7.60;99.90;;;;;;10272018;28;20034;-86
2022/01/04 22:20:55;;;;;;;5.83;3.40;;;7.50;99.90;;;;;;10263345;28;20637;-85
2022/01/04 22:25:58;;;;;;;6.63;3.90;;;7.30;99.90;;;;;;10266678;28;20043;-85
2022/01/04 22:30:58;;;;;;;5.93;4.00;;;7.20;99.90;;;;;;10269253;28;20379;-86
2022/01/04 22:35:59;;;;;;;8.30;4.87;;;7.00;99.90;;;;;;10280644;28;20036;-85
2022/01/04 22:41:00;;;;;;;8.00;4.47;;;6.90;99.90;;;;;;10250075;28;20050;-85
2022/01/04 22:46:01;;;;;;;7.60;5.17;;;6.90;99.90;;;;;;10276416;28;20035;-85
2022/01/04 22:51:02;;;;;;;6.90;4.30;;;6.90;99.90;;;;;;10265434;28;20046;-86
2022/01/04 22:56:03;;;;;;;7.73;4.60;;;6.80;99.90;;;;;;10258144;28;20054;-84
2022/01/04 23:01:04;;;;;;;14.53;7.73;;;6.80;99.90;;;;;;10254375;28;20034;-85
2022/01/04 23:06:05;;;;;;;13.87;6.50;;;6.70;99.90;;;;;;10268416;28;20427;-84
2022/01/04 23:11:06;;;;;;;13.60;6.67;;;6.60;99.90;;;;;;10264204;28;20034;-87
2022/01/04 23:16:08;;;;;;;15.83;9.50;;;6.60;99.90;;;;;;10281350;28;20030;-87
2022/01/04 23:21:10;;;;;;;15.30;7.53;;;6.50;99.90;;;;;;10278998;28;20047;-86
2022/01/04 23:26:14;;;;;;;11.87;6.97;;;6.50;99.90;;;;;;10264110;28;20097;-85
2022/01/04 23:31:14;;;;;;;13.97;7.63;;;6.40;99.90;;;;;;10269953;28;20057;-85
2022/01/04 23:36:15;;;;;;;15.67;8.43;;;6.40;99.90;;;;;;10288766;28;20039;-87
2022/01/04 23:41:16;;;;;;;11.83;6.87;;;6.40;99.90;;;;;;10289687;28;20042;-88
2022/01/04 23:46:16;;;;;;;13.70;7.57;;;6.40;99.90;;;;;;10286771;28;20089;-86
2022/01/04 23:51:17;;;;;;;14.27;7.83;;;6.30;99.90;;;;;;10242575;28;20142;-87
2022/01/04 23:56:18;;;;;;;13.40;7.07;;;6.30;99.90;;;;;;10261186;28;20041;-87
